createdAt,value
2022-08-25T00:00:22.648Z,21.42
2022-08-25T00:01:22.597Z,21.40
2022-08-25T00:02:22.528Z,21.40
2022-08-25T00:03:22.456Z,21.43
2022-08-25T00:04:26.414Z,21.43
2022-08-25T00:05:22.365Z,21.40
2022-08-25T00:06:22.263Z,21.42
2022-08-25T00:07:22.160Z,21.40
2022-08-25T00:08:22.086Z,21.37
2022-08-25T00:09:22.024Z,21.37
2022-08-25T00:10:22.024Z,21.35
2022-08-25T00:11:21.934Z,21.32
2022-08-25T00:12:21.886Z,21.29
2022-08-25T00:13:21.809Z,21.29
2022-08-25T00:14:21.759Z,21.29
2022-08-25T00:15:21.679Z,21.29
2022-08-25T00:16:21.972Z,21.29
2022-08-25T00:17:21.568Z,21.27
2022-08-25T00:18:21.505Z,21.25
2022-08-25T00:19:21.426Z,21.24
2022-08-25T00:20:21.359Z,21.21
2022-08-25T00:21:21.311Z,21.21
2022-08-25T00:22:21.244Z,21.21
2022-08-25T00:23:21.178Z,21.16
2022-08-25T00:24:21.122Z,21.14
2022-08-25T00:25:21.033Z,21.14
2022-08-25T00:26:21.018Z,21.10
2022-08-25T00:27:20.913Z,21.09
2022-08-25T00:28:21.622Z,21.07
2022-08-25T00:29:20.823Z,21.04
2022-08-25T00:30:20.717Z,21.03
2022-08-25T00:31:20.682Z,21.01
2022-08-25T00:32:20.589Z,20.97
2022-08-25T00:33:20.527Z,20.94
2022-08-25T00:34:21.681Z,20.91
2022-08-25T00:35:20.396Z,20.88
2022-08-25T00:36:20.340Z,20.85
2022-08-25T00:37:20.280Z,20.84
2022-08-25T00:38:20.199Z,20.84
2022-08-25T00:39:20.169Z,20.79
2022-08-25T00:40:20.157Z,20.74
2022-08-25T00:41:20.025Z,20.73
2022-08-25T00:42:19.958Z,20.72
2022-08-25T00:43:19.887Z,20.70
2022-08-25T00:44:19.822Z,20.69
2022-08-25T00:45:19.775Z,20.67
2022-08-25T00:46:19.823Z,20.64
2022-08-25T00:47:19.623Z,20.62
2022-08-25T00:48:19.562Z,20.59
2022-08-25T00:49:25.292Z,20.58
2022-08-25T00:50:19.453Z,20.57
2022-08-25T00:51:19.380Z,20.54
2022-08-25T00:52:20.075Z,20.51
2022-08-25T00:53:19.238Z,20.48
2022-08-25T00:54:19.173Z,20.43
2022-08-25T00:55:19.109Z,20.39
2022-08-25T00:56:19.067Z,20.36
2022-08-25T00:57:18.985Z,20.36
2022-08-25T00:58:18.964Z,20.33
2022-08-25T00:59:18.867Z,20.31
2022-08-25T01:00:18.807Z,20.29
2022-08-25T01:01:18.776Z,20.28
2022-08-25T01:02:18.693Z,20.24
2022-08-25T01:03:18.608Z,20.24
2022-08-25T01:04:19.328Z,20.20
2022-08-25T01:05:18.485Z,20.18
2022-08-25T01:06:18.407Z,20.18
2022-08-25T01:07:18.340Z,20.17
2022-08-25T01:08:18.272Z,20.16
2022-08-25T01:09:18.226Z,20.17
2022-08-25T01:10:19.362Z,20.16
2022-08-25T01:11:18.095Z,20.14
2022-08-25T01:12:18.028Z,20.13
2022-08-25T01:13:17.956Z,20.11
2022-08-25T01:14:17.889Z,20.10
2022-08-25T01:15:17.825Z,20.06
2022-08-25T01:16:17.895Z,20.06
2022-08-25T01:17:17.699Z,20.06
2022-08-25T01:18:17.634Z,20.05
2022-08-25T01:19:17.592Z,20.03
2022-08-25T01:20:17.518Z,20.02
2022-08-25T01:21:17.463Z,20.02
2022-08-25T01:22:17.450Z,20.03
2022-08-25T01:23:17.312Z,20.01
2022-08-25T01:24:17.255Z,19.98
2022-08-25T01:25:17.196Z,19.95
2022-08-25T01:26:17.128Z,19.91
2022-08-25T01:27:17.066Z,19.91
2022-08-25T01:28:16.992Z,19.88
2022-08-25T01:29:16.975Z,19.84
2022-08-25T01:30:16.877Z,19.84
2022-08-25T01:31:23.711Z,19.81
2022-08-25T01:32:16.735Z,19.80
2022-08-25T01:33:16.667Z,19.80
2022-08-25T01:34:16.624Z,19.76
2022-08-25T01:35:16.565Z,19.74
2022-08-25T01:36:16.476Z,19.73
2022-08-25T01:37:16.423Z,19.68
2022-08-25T01:38:16.359Z,19.68
2022-08-25T01:39:16.281Z,19.66
2022-08-25T01:40:17.467Z,19.66
2022-08-25T01:41:16.155Z,19.65
2022-08-25T01:42:16.084Z,19.61
2022-08-25T01:43:16.034Z,19.61
2022-08-25T01:44:16.634Z,19.61
2022-08-25T01:45:15.929Z,19.58
2022-08-25T01:46:16.654Z,19.55
2022-08-25T01:47:15.783Z,19.54
2022-08-25T01:48:15.705Z,19.48
2022-08-25T01:49:15.657Z,19.47
2022-08-25T01:50:15.575Z,19.43
2022-08-25T01:51:15.519Z,19.39
2022-08-25T01:52:15.461Z,19.37
2022-08-25T01:53:15.391Z,19.36
2022-08-25T01:54:15.350Z,19.36
2022-08-25T01:55:15.262Z,19.33
2022-08-25T01:56:15.203Z,19.31
2022-08-25T01:57:15.160Z,19.31
2022-08-25T01:58:17.351Z,19.28
2022-08-25T01:59:15.011Z,19.29
2022-08-25T02:00:14.934Z,19.28
2022-08-25T02:01:14.934Z,19.26
2022-08-25T02:02:14.805Z,19.26
2022-08-25T02:03:17.531Z,19.23
2022-08-25T02:04:15.465Z,19.25
2022-08-25T02:05:14.639Z,19.23
2022-08-25T02:06:14.623Z,19.23
2022-08-25T02:07:14.493Z,19.22
2022-08-25T02:08:14.450Z,19.22
2022-08-25T02:09:14.381Z,19.19
2022-08-25T02:10:14.343Z,19.21
2022-08-25T02:11:14.229Z,19.21
2022-08-25T02:12:14.176Z,19.19
2022-08-25T02:13:14.367Z,19.19
2022-08-25T02:14:14.022Z,19.16
2022-08-25T02:15:14.001Z,19.14
2022-08-25T02:16:14.924Z,19.13
2022-08-25T02:17:13.868Z,19.11
2022-08-25T02:18:13.811Z,19.11
2022-08-25T02:19:13.723Z,19.10
2022-08-25T02:20:13.643Z,19.10
2022-08-25T02:21:13.594Z,19.04
2022-08-25T02:22:15.064Z,19.04
2022-08-25T02:23:13.464Z,19.02
2022-08-25T02:24:13.401Z,19.00
2022-08-25T02:25:13.327Z,18.99
2022-08-25T02:26:13.290Z,18.99
2022-08-25T02:27:13.216Z,19.00
2022-08-25T02:28:13.415Z,18.99
2022-08-25T02:29:13.071Z,18.98
2022-08-25T02:30:12.991Z,18.99
2022-08-25T02:31:12.974Z,18.98
2022-08-25T02:32:12.882Z,18.95
2022-08-25T02:33:12.804Z,18.98
2022-08-25T02:34:12.799Z,18.95
2022-08-25T02:35:12.719Z,18.95
2022-08-25T02:36:12.633Z,18.94
2022-08-25T02:37:12.548Z,18.95
2022-08-25T02:38:12.524Z,18.94
2022-08-25T02:39:12.449Z,18.92
2022-08-25T02:40:13.200Z,18.91
2022-08-25T02:41:12.289Z,18.90
2022-08-25T02:42:12.231Z,18.88
2022-08-25T02:43:12.159Z,18.87
2022-08-25T02:44:12.130Z,18.87
2022-08-25T02:45:12.042Z,18.87
2022-08-25T02:46:13.255Z,18.85
2022-08-25T02:47:11.909Z,18.84
2022-08-25T02:48:11.871Z,18.85
2022-08-25T02:49:11.819Z,18.85
2022-08-25T02:50:11.751Z,18.84
2022-08-25T02:51:11.642Z,18.85
2022-08-25T02:52:11.598Z,18.82
2022-08-25T02:53:11.526Z,18.81
2022-08-25T02:54:11.460Z,18.81
2022-08-25T02:55:11.382Z,18.80
2022-08-25T02:56:11.332Z,18.80
2022-08-25T02:57:11.258Z,18.78
2022-08-25T02:58:11.214Z,18.76
2022-08-25T02:59:11.158Z,18.75
2022-08-25T03:00:11.098Z,18.76
2022-08-25T03:01:11.022Z,18.73
2022-08-25T03:02:10.953Z,18.73
2022-08-25T03:03:10.865Z,18.69
2022-08-25T03:04:11.608Z,18.67
2022-08-25T03:05:10.787Z,18.66
2022-08-25T03:06:10.669Z,18.65
2022-08-25T03:07:10.640Z,18.63
2022-08-25T03:08:10.554Z,18.62
2022-08-25T03:09:10.479Z,18.60
2022-08-25T03:10:10.436Z,18.60
2022-08-25T03:11:10.359Z,18.57
2022-08-25T03:12:10.293Z,18.57
2022-08-25T03:13:10.257Z,18.55
2022-08-25T03:14:10.154Z,18.55
2022-08-25T03:15:12.921Z,18.54
2022-08-25T03:16:11.374Z,18.52
2022-08-25T03:17:10.038Z,18.51
2022-08-25T03:18:09.892Z,18.50
2022-08-25T03:19:09.832Z,18.48
2022-08-25T03:20:09.782Z,18.47
2022-08-25T03:21:09.727Z,18.45
2022-08-25T03:22:09.664Z,18.42
2022-08-25T03:23:09.597Z,18.42
2022-08-25T03:24:09.529Z,18.37
2022-08-25T03:25:09.536Z,18.37
2022-08-25T03:26:09.384Z,18.35
2022-08-25T03:27:09.319Z,18.33
2022-08-25T03:28:11.565Z,18.32
2022-08-25T03:29:09.200Z,18.32
2022-08-25T03:30:09.126Z,18.33
2022-08-25T03:31:09.076Z,18.30
2022-08-25T03:32:09.023Z,18.32
2022-08-25T03:33:08.931Z,18.30
2022-08-25T03:34:09.158Z,18.30
2022-08-25T03:35:08.839Z,18.29
2022-08-25T03:36:08.750Z,18.27
2022-08-25T03:37:08.683Z,18.27
2022-08-25T03:38:08.607Z,18.27
2022-08-25T03:39:08.556Z,18.27
2022-08-25T03:40:08.546Z,18.26
2022-08-25T03:41:08.449Z,18.26
2022-08-25T03:42:08.370Z,18.25
2022-08-25T03:43:08.300Z,18.25
2022-08-25T03:44:08.214Z,18.20
2022-08-25T03:45:08.166Z,18.20
2022-08-25T03:46:08.215Z,18.18
2022-08-25T03:47:08.027Z,18.17
2022-08-25T03:48:07.977Z,18.15
2022-08-25T03:49:07.895Z,18.14
2022-08-25T03:50:07.862Z,18.11
2022-08-25T03:51:07.717Z,18.08
2022-08-25T03:52:10.081Z,18.08
2022-08-25T03:53:07.638Z,18.05
2022-08-25T03:54:07.519Z,18.05
2022-08-25T03:55:07.454Z,18.03
2022-08-25T03:56:07.406Z,18.05
2022-08-25T03:57:07.350Z,18.03
2022-08-25T03:58:08.476Z,18.03
2022-08-25T03:59:07.210Z,18.00
2022-08-25T04:00:07.150Z,17.97
2022-08-25T04:01:07.098Z,17.97
2022-08-25T04:02:07.062Z,17.97
2022-08-25T04:03:06.950Z,17.96
2022-08-25T04:04:06.880Z,17.95
2022-08-25T04:05:06.828Z,17.95
2022-08-25T04:06:06.758Z,17.93
2022-08-25T04:07:06.684Z,17.90
2022-08-25T04:08:06.839Z,17.93
2022-08-25T04:09:06.547Z,17.96
2022-08-25T04:10:06.521Z,17.95
2022-08-25T04:11:06.424Z,17.96
2022-08-25T04:12:06.364Z,17.95
2022-08-25T04:13:06.292Z,17.95
2022-08-25T04:14:06.238Z,17.95
2022-08-25T04:15:06.160Z,17.95
2022-08-25T04:16:07.345Z,17.95
2022-08-25T04:17:06.074Z,17.93
2022-08-25T04:18:06.133Z,17.95
2022-08-25T04:19:05.916Z,17.93
2022-08-25T04:20:05.865Z,17.93
2022-08-25T04:21:05.806Z,17.93
2022-08-25T04:22:05.765Z,17.93
2022-08-25T04:23:05.643Z,17.95
2022-08-25T04:24:05.617Z,17.95
2022-08-25T04:25:05.514Z,17.93
2022-08-25T04:26:05.490Z,17.92
2022-08-25T04:27:05.415Z,17.92
2022-08-25T04:28:05.454Z,17.93
2022-08-25T04:29:05.250Z,17.93
2022-08-25T04:30:05.208Z,17.95
2022-08-25T04:31:05.122Z,17.93
2022-08-25T04:32:05.168Z,17.95
2022-08-25T04:33:05.005Z,17.95
2022-08-25T04:34:13.460Z,17.93
2022-08-25T04:35:04.875Z,17.95
2022-08-25T04:36:08.796Z,17.96
2022-08-25T04:37:04.747Z,17.95
2022-08-25T04:38:04.892Z,17.96
2022-08-25T04:39:04.609Z,17.96
2022-08-25T04:40:06.414Z,17.99
2022-08-25T04:41:04.480Z,18.00
2022-08-25T04:42:04.411Z,18.00
2022-08-25T04:43:04.356Z,18.00
2022-08-25T04:44:04.300Z,17.99
2022-08-25T04:45:04.242Z,18.02
2022-08-25T04:46:04.980Z,17.99
2022-08-25T04:47:04.099Z,18.00
2022-08-25T04:48:04.144Z,18.00
2022-08-25T04:49:03.997Z,18.00
2022-08-25T04:50:03.940Z,18.03
2022-08-25T04:51:03.853Z,18.02
2022-08-25T04:52:03.783Z,18.03
2022-08-25T04:53:03.702Z,18.05
2022-08-25T04:54:03.649Z,18.05
2022-08-25T04:55:03.570Z,18.05
2022-08-25T04:56:04.073Z,18.07
2022-08-25T04:57:03.443Z,18.05
2022-08-25T04:58:05.844Z,18.07
2022-08-25T04:59:03.330Z,18.05
2022-08-25T05:00:03.271Z,18.07
2022-08-25T05:01:03.302Z,18.07
2022-08-25T05:02:03.485Z,18.10
2022-08-25T05:03:03.076Z,18.11
2022-08-25T05:04:03.852Z,18.12
2022-08-25T05:05:02.925Z,18.14
2022-08-25T05:06:02.896Z,18.14
2022-08-25T05:07:02.790Z,18.15
2022-08-25T05:08:02.796Z,18.18
2022-08-25T05:09:02.676Z,18.20
2022-08-25T05:10:02.655Z,18.23
2022-08-25T05:11:02.556Z,18.27
2022-08-25T05:12:02.833Z,18.27
2022-08-25T05:13:02.409Z,18.29
2022-08-25T05:14:02.344Z,18.30
2022-08-25T05:15:02.287Z,18.30
2022-08-25T05:16:03.043Z,18.30
2022-08-25T05:17:02.220Z,18.32
2022-08-25T05:18:02.098Z,18.33
2022-08-25T05:19:02.033Z,18.36
2022-08-25T05:20:01.976Z,18.36
2022-08-25T05:21:01.893Z,18.39
2022-08-25T05:22:02.632Z,18.41
2022-08-25T05:23:01.762Z,18.42
2022-08-25T05:24:01.713Z,18.42
2022-08-25T05:25:01.640Z,18.44
2022-08-25T05:26:01.563Z,18.47
2022-08-25T05:27:01.504Z,18.50
2022-08-25T05:28:01.463Z,18.52
2022-08-25T05:29:01.390Z,18.52
2022-08-25T05:30:01.317Z,18.55
2022-08-25T05:31:01.260Z,18.57
2022-08-25T05:32:01.236Z,18.57
2022-08-25T05:33:01.118Z,18.58
2022-08-25T05:34:01.073Z,18.58
2022-08-25T05:35:01.001Z,18.62
2022-08-25T05:36:00.935Z,18.63
2022-08-25T05:37:00.853Z,18.63
2022-08-25T05:38:00.801Z,18.66
2022-08-25T05:39:00.727Z,18.67
2022-08-25T05:40:00.756Z,18.69
2022-08-25T05:41:00.600Z,18.73
2022-08-25T05:42:01.176Z,18.78
2022-08-25T05:43:00.485Z,18.81
2022-08-25T05:44:00.416Z,18.84
2022-08-25T05:45:02.607Z,18.88
2022-08-25T05:46:06.931Z,18.92
2022-08-25T05:47:02.970Z,18.98
2022-08-25T05:48:08.181Z,19.04
2022-08-25T05:49:00.455Z,19.11
2022-08-25T05:50:01.218Z,19.18
2022-08-25T05:51:01.576Z,19.25
2022-08-25T05:52:04.846Z,19.33
2022-08-25T05:53:00.894Z,19.41
2022-08-25T05:54:01.260Z,19.51
2022-08-25T05:54:59.726Z,19.61
2022-08-25T05:55:59.650Z,19.73
2022-08-25T05:56:59.590Z,19.84
2022-08-25T05:58:01.074Z,19.99
2022-08-25T05:58:59.454Z,20.21
2022-08-25T05:59:59.373Z,20.58
2022-08-25T06:00:59.367Z,20.95
2022-08-25T06:01:59.247Z,21.32
2022-08-25T06:03:00.918Z,21.65
2022-08-25T06:03:59.503Z,21.92
2022-08-25T06:04:59.334Z,22.24
2022-08-25T06:05:59.158Z,22.55
2022-08-25T06:06:58.939Z,22.82
2022-08-25T06:07:59.326Z,23.10
2022-08-25T06:08:58.809Z,23.36
2022-08-25T06:09:59.945Z,23.60
2022-08-25T06:10:58.659Z,23.80
2022-08-25T06:11:58.595Z,24.06
2022-08-25T06:12:58.545Z,24.25
2022-08-25T06:13:58.472Z,24.40
2022-08-25T06:14:58.428Z,24.62
2022-08-25T06:15:58.407Z,24.80
2022-08-25T06:16:58.281Z,24.93
2022-08-25T06:18:01.722Z,25.03
2022-08-25T06:18:58.165Z,25.15
2022-08-25T06:19:58.851Z,25.28
2022-08-25T06:20:58.037Z,25.27
2022-08-25T06:21:57.983Z,25.35
2022-08-25T06:22:57.906Z,25.50
2022-08-25T06:23:57.844Z,25.65
2022-08-25T06:24:57.783Z,25.75
2022-08-25T06:25:59.822Z,25.83
2022-08-25T06:26:58.371Z,26.02
2022-08-25T06:27:57.595Z,26.09
2022-08-25T06:28:57.523Z,26.10
2022-08-25T06:29:57.506Z,26.26
2022-08-25T06:30:57.384Z,26.39
2022-08-25T06:31:57.422Z,26.54
2022-08-25T06:32:57.294Z,26.65
2022-08-25T06:33:58.427Z,26.75
2022-08-25T06:34:57.155Z,26.81
2022-08-25T06:35:57.120Z,26.87
2022-08-25T06:36:57.030Z,27.00
2022-08-25T06:37:56.960Z,27.12
2022-08-25T06:38:56.937Z,27.17
2022-08-25T06:39:56.921Z,27.21
2022-08-25T06:40:56.776Z,27.18
2022-08-25T06:41:56.690Z,27.07
2022-08-25T06:42:56.668Z,27.06
2022-08-25T06:43:57.532Z,27.19
2022-08-25T06:44:56.532Z,27.29
2022-08-25T06:45:57.388Z,27.46
2022-08-25T06:46:56.430Z,27.60
2022-08-25T06:47:56.342Z,27.70
2022-08-25T06:48:56.275Z,27.70
2022-08-25T06:49:56.221Z,27.82
2022-08-25T06:50:56.852Z,28.02
2022-08-25T06:51:57.669Z,28.19
2022-08-25T06:52:55.998Z,28.29
2022-08-25T06:53:55.976Z,28.36
2022-08-25T06:54:55.920Z,28.49
2022-08-25T06:55:55.846Z,28.55
2022-08-25T06:56:55.786Z,28.62
2022-08-25T06:57:55.721Z,28.71
2022-08-25T06:58:55.647Z,28.83
2022-08-25T06:59:55.598Z,28.85
2022-08-25T07:00:55.628Z,28.90
2022-08-25T07:01:55.500Z,28.92
2022-08-25T07:02:56.360Z,29.06
2022-08-25T07:03:55.852Z,29.14
2022-08-25T07:04:55.277Z,29.24
2022-08-25T07:05:55.211Z,29.33
2022-08-25T07:06:55.120Z,29.42
2022-08-25T07:07:55.080Z,29.60
2022-08-25T07:08:55.038Z,29.78
2022-08-25T07:09:54.991Z,29.80
2022-08-25T07:10:54.919Z,29.89
2022-08-25T07:11:54.831Z,29.94
2022-08-25T07:12:54.797Z,30.00
2022-08-25T07:13:54.699Z,30.07
2022-08-25T07:15:10.213Z,30.11
2022-08-25T07:15:54.710Z,30.00
2022-08-25T07:16:54.523Z,29.92
2022-08-25T07:17:54.439Z,29.90
2022-08-25T07:18:56.064Z,29.94
2022-08-25T07:19:57.647Z,30.04
2022-08-25T07:20:54.274Z,30.13
2022-08-25T07:21:55.013Z,30.23
2022-08-25T07:22:54.128Z,30.34
2022-08-25T07:23:54.097Z,30.42
2022-08-25T07:24:54.036Z,30.54
2022-08-25T07:25:53.949Z,30.65
2022-08-25T07:26:53.906Z,30.80
2022-08-25T07:51:29.708Z,30.57
2022-08-25T07:51:34.901Z,31.01
2022-08-25T07:52:34.824Z,30.98
2022-08-25T07:53:34.798Z,31.06
2022-08-25T07:54:37.847Z,31.01
2022-08-25T07:55:34.653Z,30.95
2022-08-25T07:56:35.626Z,30.80
2022-08-25T07:57:34.521Z,30.62
2022-08-25T07:58:34.477Z,30.70
2022-08-25T07:59:38.975Z,30.72
2022-08-25T08:00:34.362Z,30.84
2022-08-25T08:01:34.379Z,30.95
2022-08-25T08:02:35.825Z,31.23
2022-08-25T08:03:50.284Z,31.43
2022-08-25T08:04:34.116Z,31.57
2022-08-25T08:05:34.050Z,31.76
2022-08-25T08:06:33.988Z,31.96
2022-08-25T08:07:42.264Z,32.04
2022-08-25T08:08:33.882Z,32.25
2022-08-25T08:09:33.797Z,32.43
2022-08-25T08:11:00.657Z,32.33
2022-08-25T08:11:33.672Z,32.28
2022-08-25T08:12:33.611Z,32.18
2022-08-25T08:13:35.767Z,32.00
2022-08-25T08:14:33.520Z,31.78
2022-08-25T08:15:33.449Z,31.78
2022-08-25T08:16:33.484Z,32.08
2022-08-25T08:17:33.306Z,32.25
2022-08-25T08:18:33.248Z,32.25
2022-08-25T08:19:33.194Z,32.25
2022-08-25T08:20:42.617Z,32.04
2022-08-25T08:21:33.070Z,32.14
2022-08-25T08:22:33.018Z,32.01
2022-08-25T08:23:32.939Z,31.89
2022-08-25T08:24:56.230Z,31.89
2022-08-25T08:25:32.844Z,31.86
2022-08-25T08:26:57.337Z,31.72
2022-08-25T08:27:32.701Z,31.69
2022-08-25T08:28:32.648Z,31.54
2022-08-25T08:29:32.621Z,31.66
2022-08-25T08:30:32.512Z,31.56
2022-08-25T08:31:32.543Z,31.72
2022-08-25T08:33:05.972Z,31.65
2022-08-25T08:33:32.390Z,31.46
2022-08-25T08:34:32.281Z,31.35
2022-08-25T08:35:32.935Z,31.13
2022-08-25T08:36:32.149Z,30.83
2022-08-25T08:37:32.130Z,30.27
2022-08-25T08:38:32.074Z,29.90
2022-08-25T08:39:31.993Z,29.90
2022-08-25T08:40:31.977Z,30.07
2022-08-25T08:41:40.141Z,30.43
2022-08-25T08:42:32.779Z,30.29
2022-08-25T08:43:33.537Z,29.95
2022-08-25T08:44:33.576Z,30.15
2022-08-25T08:45:31.658Z,30.43
2022-08-25T08:46:31.989Z,30.49
2022-08-25T08:47:32.386Z,30.45
2022-08-25T08:48:31.444Z,30.67
2022-08-25T08:49:31.530Z,30.62
2022-08-25T08:50:33.142Z,30.64
2022-08-25T08:51:33.099Z,30.83
2022-08-25T08:52:32.407Z,30.98
2022-08-25T08:53:34.239Z,31.10
2022-08-25T08:54:31.093Z,31.01
2022-08-25T08:55:31.013Z,30.77
2022-08-25T08:56:33.390Z,30.35
2022-08-25T08:57:31.112Z,30.23
2022-08-25T08:58:30.824Z,30.19
2022-08-25T08:59:31.016Z,30.23
2022-08-25T09:00:30.776Z,30.47
2022-08-25T09:01:31.166Z,30.64
2022-08-25T09:02:39.256Z,30.80
2022-08-25T09:03:30.579Z,30.70
2022-08-25T09:04:30.463Z,30.51
2022-08-25T09:05:30.383Z,30.24
2022-08-25T09:06:30.372Z,30.13
2022-08-25T09:07:30.277Z,30.05
2022-08-25T09:08:30.220Z,29.97
2022-08-25T09:09:30.153Z,29.98
2022-08-25T09:10:30.099Z,30.15
2022-08-25T09:11:30.586Z,30.43
2022-08-25T09:12:30.003Z,30.58
2022-08-25T09:13:29.901Z,30.72
2022-08-25T09:14:31.086Z,30.89
2022-08-25T09:15:29.773Z,31.12
2022-08-25T09:16:33.838Z,31.23
2022-08-25T09:17:29.671Z,31.32
2022-08-25T09:18:29.591Z,31.32
2022-08-25T09:19:29.536Z,31.14
2022-08-25T09:20:29.485Z,31.23
2022-08-25T09:21:29.407Z,31.43
2022-08-25T09:22:35.347Z,31.56
2022-08-25T09:23:29.294Z,31.41
2022-08-25T09:24:29.230Z,31.46
2022-08-25T09:26:29.148Z,30.95
2022-08-25T09:27:29.084Z,30.54
2022-08-25T09:28:28.983Z,30.60
2022-08-25T09:29:28.936Z,30.72
2022-08-25T09:30:28.877Z,30.91
2022-08-25T09:31:29.901Z,31.16
2022-08-25T09:32:31.264Z,31.26
2022-08-25T09:33:28.729Z,31.32
2022-08-25T09:34:28.638Z,31.32
2022-08-25T09:35:28.574Z,31.13
2022-08-25T09:36:28.514Z,30.91
2022-08-25T09:37:28.455Z,30.82
2022-08-25T09:38:29.153Z,30.88
2022-08-25T09:39:28.413Z,30.98
2022-08-25T09:40:28.320Z,30.97
2022-08-25T09:41:28.255Z,31.06
2022-08-25T09:42:28.149Z,31.13
2022-08-25T09:43:28.134Z,30.69
2022-08-25T09:44:28.877Z,30.64
2022-08-25T09:45:27.992Z,30.37
2022-08-25T09:46:27.943Z,30.20
2022-08-25T09:47:28.122Z,30.16
2022-08-25T09:48:28.540Z,30.23
2022-08-25T09:49:27.744Z,30.39
2022-08-25T09:50:27.684Z,30.62
2022-08-25T09:51:27.622Z,30.70
2022-08-25T09:52:27.539Z,30.75
2022-08-25T09:53:27.505Z,30.79
2022-08-25T09:54:36.319Z,30.92
2022-08-25T09:55:27.369Z,30.98
2022-08-25T09:56:28.503Z,30.95
2022-08-25T09:57:27.252Z,30.84
2022-08-25T09:58:27.193Z,30.65
2022-08-25T09:59:35.218Z,30.64
2022-08-25T10:00:27.064Z,30.73
2022-08-25T10:01:27.041Z,30.67
2022-08-25T10:02:28.475Z,30.49
2022-08-25T10:03:26.872Z,30.24
2022-08-25T10:04:26.820Z,30.10
2022-08-25T10:05:26.796Z,30.04
2022-08-25T10:06:26.687Z,30.08
2022-08-25T10:07:26.642Z,29.94
2022-08-25T10:08:27.802Z,29.89
2022-08-25T10:09:26.520Z,30.04
2022-08-25T10:10:26.446Z,30.32
2022-08-25T10:11:26.391Z,30.64
2022-08-25T10:12:27.716Z,30.94
2022-08-25T10:13:26.278Z,31.14
2022-08-25T10:14:26.217Z,31.35
2022-08-25T10:15:29.784Z,31.56
2022-08-25T10:16:27.810Z,31.65
2022-08-25T10:17:27.640Z,31.72
2022-08-25T10:18:26.188Z,31.86
2022-08-25T10:19:25.917Z,31.88
2022-08-25T10:20:25.874Z,31.95
2022-08-25T10:21:25.773Z,31.69
2022-08-25T10:22:25.707Z,31.70
2022-08-25T10:23:25.642Z,31.80
2022-08-25T10:24:25.581Z,31.86
2022-08-25T10:25:25.531Z,31.95
2022-08-25T10:26:25.488Z,32.00
2022-08-25T10:27:28.403Z,32.07
2022-08-25T10:28:25.380Z,32.10
2022-08-25T10:29:25.296Z,32.13
2022-08-25T10:30:25.233Z,32.15
2022-08-25T10:31:25.232Z,32.04
2022-08-25T10:32:25.899Z,32.00
2022-08-25T10:33:25.052Z,32.03
2022-08-25T10:34:24.990Z,32.01
2022-08-25T10:35:24.928Z,32.03
2022-08-25T10:36:24.881Z,32.06
2022-08-25T10:37:24.805Z,32.08
2022-08-25T10:38:27.142Z,32.14
2022-08-25T10:39:33.849Z,32.14
2022-08-25T10:40:24.717Z,32.06
2022-08-25T10:41:24.551Z,32.03
2022-08-25T10:42:25.785Z,31.96
2022-08-25T10:43:24.441Z,31.88
2022-08-25T10:44:26.373Z,31.86
2022-08-25T10:45:24.327Z,31.76
2022-08-25T10:46:24.312Z,31.63
2022-08-25T10:47:24.233Z,31.62
2022-08-25T10:48:24.132Z,31.65
2022-08-25T10:49:24.089Z,31.29
2022-08-25T10:50:24.030Z,31.07
2022-08-25T10:51:25.709Z,31.07
2022-08-25T10:52:23.887Z,31.19
2022-08-25T10:53:23.832Z,31.06
2022-08-25T10:54:23.777Z,30.95
2022-08-25T10:55:23.711Z,30.86
2022-08-25T10:56:24.446Z,30.95
2022-08-25T10:57:23.598Z,31.04
2022-08-25T10:58:23.537Z,31.10
2022-08-25T10:59:23.473Z,31.17
2022-08-25T11:00:23.395Z,31.13
2022-08-25T11:01:28.663Z,31.09
2022-08-25T11:02:23.323Z,31.13
2022-08-25T11:03:23.231Z,31.13
2022-08-25T11:04:25.422Z,31.13
2022-08-25T11:05:24.552Z,31.14
2022-08-25T11:06:23.048Z,31.12
2022-08-25T11:07:22.972Z,31.12
2022-08-25T11:08:22.933Z,31.16
2022-08-25T11:09:22.884Z,31.14
2022-08-25T11:10:22.810Z,30.99
2022-08-25T11:11:22.731Z,30.70
2022-08-25T11:12:22.670Z,30.51
2022-08-25T11:13:22.616Z,30.47
2022-08-25T11:14:22.838Z,30.46
2022-08-25T11:15:22.512Z,30.49
2022-08-25T11:16:22.468Z,30.51
2022-08-25T11:17:22.378Z,30.53
2022-08-25T11:18:22.312Z,30.53
2022-08-25T11:19:22.258Z,30.55
2022-08-25T11:20:26.838Z,30.51
2022-08-25T11:21:22.272Z,30.38
2022-08-25T11:22:22.071Z,30.23
2022-08-25T11:23:22.013Z,30.19
2022-08-25T11:24:22.886Z,30.16
2022-08-25T11:25:21.868Z,30.20
2022-08-25T11:26:23.429Z,30.22
2022-08-25T11:27:21.790Z,30.01
2022-08-25T11:28:22.270Z,29.89
2022-08-25T11:29:21.638Z,29.79
2022-08-25T11:30:21.590Z,29.58
2022-08-25T11:31:21.767Z,29.49
2022-08-25T11:32:22.251Z,29.53
2022-08-25T11:33:21.410Z,29.61
2022-08-25T11:34:21.329Z,29.73
2022-08-25T11:35:21.265Z,29.83
2022-08-25T11:36:21.212Z,29.94
2022-08-25T11:37:21.162Z,30.05
2022-08-25T11:38:21.098Z,30.08
2022-08-25T11:39:21.054Z,30.13
2022-08-25T11:40:21.025Z,30.15
2022-08-25T11:41:21.517Z,30.16
2022-08-25T11:42:20.834Z,30.17
2022-08-25T11:43:20.783Z,30.20
2022-08-25T11:44:20.712Z,30.15
2022-08-25T11:45:20.645Z,30.16
2022-08-25T11:46:20.618Z,30.07
2022-08-25T11:47:21.457Z,30.08
2022-08-25T11:48:20.488Z,30.10
2022-08-25T11:49:21.810Z,30.19
2022-08-25T11:50:20.382Z,30.13
2022-08-25T11:51:20.284Z,30.02
2022-08-25T11:52:20.251Z,29.85
2022-08-25T11:53:26.780Z,29.79
2022-08-25T11:54:20.592Z,29.83
2022-08-25T11:55:22.824Z,29.67
2022-08-25T11:56:20.777Z,29.65
2022-08-25T11:57:19.925Z,29.83
2022-08-25T11:58:19.859Z,30.13
2022-08-25T11:59:19.786Z,30.49
2022-08-25T12:00:19.721Z,30.84
2022-08-25T12:01:19.705Z,31.10
2022-08-25T12:02:19.606Z,31.07
2022-08-25T12:03:19.532Z,30.92
2022-08-25T12:04:19.540Z,30.86
2022-08-25T12:05:19.645Z,30.88
2022-08-25T12:06:19.386Z,30.84
2022-08-25T12:07:19.294Z,30.79
2022-08-25T12:08:19.251Z,30.75
2022-08-25T12:09:19.172Z,30.49
2022-08-25T12:10:19.107Z,30.45
2022-08-25T12:11:19.063Z,30.46
2022-08-25T12:12:18.985Z,30.53
2022-08-25T12:13:18.907Z,30.62
2022-08-25T12:14:19.668Z,30.79
2022-08-25T12:15:18.825Z,30.97
2022-08-25T12:16:18.758Z,31.07
2022-08-25T12:17:18.709Z,31.09
2022-08-25T12:18:18.941Z,31.09
2022-08-25T12:19:18.604Z,31.12
2022-08-25T12:20:20.316Z,31.09
2022-08-25T12:21:18.437Z,30.91
2022-08-25T12:22:18.376Z,30.82
2022-08-25T12:23:18.288Z,30.73
2022-08-25T12:24:18.257Z,30.55
2022-08-25T12:25:18.206Z,30.51
2022-08-25T12:26:18.131Z,30.46
2022-08-25T12:27:18.054Z,30.37
2022-08-25T12:28:18.233Z,30.29
2022-08-25T12:29:17.952Z,30.31
2022-08-25T12:30:21.089Z,30.34
2022-08-25T12:31:19.091Z,30.26
2022-08-25T12:32:18.910Z,30.19
2022-08-25T12:33:17.719Z,30.15
2022-08-25T12:34:18.406Z,30.01
2022-08-25T12:35:17.648Z,29.98
2022-08-25T12:36:18.400Z,29.89
2022-08-25T12:37:17.465Z,29.78
2022-08-25T12:38:19.254Z,29.82
2022-08-25T12:39:19.074Z,29.90
2022-08-25T12:40:17.356Z,30.01
2022-08-25T12:41:17.244Z,30.05
2022-08-25T12:42:19.038Z,30.13
2022-08-25T12:43:19.689Z,30.13
2022-08-25T12:44:18.397Z,30.15
2022-08-25T12:45:16.983Z,30.11
2022-08-25T12:46:16.981Z,30.13
2022-08-25T12:47:16.820Z,30.19
2022-08-25T12:48:17.225Z,30.26
2022-08-25T12:49:19.005Z,30.37
2022-08-25T12:50:18.409Z,30.45
2022-08-25T12:51:17.389Z,30.53
2022-08-25T12:52:17.524Z,30.61
2022-08-25T12:53:16.572Z,30.61
2022-08-25T12:54:18.911Z,30.62
2022-08-25T12:55:16.325Z,30.62
2022-08-25T12:56:17.098Z,30.54
2022-08-25T12:57:16.248Z,30.45
2022-08-25T12:58:16.155Z,30.39
2022-08-25T12:59:16.084Z,29.95
2022-08-25T13:00:16.051Z,29.78
2022-08-25T13:01:17.587Z,29.71
2022-08-25T13:02:16.095Z,29.70
2022-08-25T13:03:15.918Z,29.65
2022-08-25T13:04:15.797Z,29.60
2022-08-25T13:05:15.711Z,29.46
2022-08-25T13:06:15.657Z,29.42
2022-08-25T13:07:15.585Z,29.36
2022-08-25T13:08:16.317Z,29.31
2022-08-25T13:09:15.488Z,29.36
2022-08-25T13:10:15.403Z,29.36
2022-08-25T13:11:15.324Z,29.36
2022-08-25T13:12:15.265Z,29.39
2022-08-25T13:13:15.231Z,29.37
2022-08-25T13:14:15.177Z,29.31
2022-08-25T13:15:15.097Z,29.34